sensor_id;sensor_type;location;lat;lon;timestamp;P1;durP1;ratioP1;P2;durP2;ratioP2
57465;SDS011;67033;44.984;20.068;2023-02-15T00:01:28;50.65;;;26.42;;
57465;SDS011;67033;44.984;20.068;2023-02-15T00:03:54;46.92;;;25.63;;
57465;SDS011;67033;44.984;20.068;2023-02-15T00:06:20;44.13;;;24.10;;
57465;SDS011;67033;44.984;20.068;2023-02-15T00:08:47;43.20;;;23.98;;
57465;SDS011;67033;44.984;20.068;2023-02-15T00:11:14;42.33;;;22.67;;
57465;SDS011;67033;44.984;20.068;2023-02-15T00:13:40;39.10;;;22.95;;
57465;SDS011;67033;44.984;20.068;2023-02-15T00:16:07;39.85;;;21.73;;
57465;SDS011;67033;44.984;20.068;2023-02-15T00:18:33;46.70;;;23.25;;
57465;SDS011;67033;44.984;20.068;2023-02-15T00:21:03;36.45;;;21.23;;
57465;SDS011;67033;44.984;20.068;2023-02-15T00:26:08;37.10;;;20.95;;
57465;SDS011;67033;44.984;20.068;2023-02-15T00:28:34;37.97;;;21.30;;
57465;SDS011;67033;44.984;20.068;2023-02-15T00:31:07;43.78;;;21.92;;
57465;SDS011;67033;44.984;20.068;2023-02-15T00:33:33;39.78;;;21.58;;
57465;SDS011;67033;44.984;20.068;2023-02-15T00:36:00;38.55;;;21.38;;
57465;SDS011;67033;44.984;20.068;2023-02-15T00:38:27;36.35;;;20.58;;
57465;SDS011;67033;44.984;20.068;2023-02-15T00:40:54;40.03;;;22.08;;
57465;SDS011;67033;44.984;20.068;2023-02-15T00:43:20;37.00;;;20.45;;
57465;SDS011;67033;44.984;20.068;2023-02-15T00:45:47;38.55;;;22.27;;
57465;SDS011;67033;44.984;20.068;2023-02-15T00:48:13;42.75;;;22.33;;
57465;SDS011;67033;44.984;20.068;2023-02-15T00:50:39;40.50;;;21.70;;
57465;SDS011;67033;44.984;20.068;2023-02-15T00:53:05;39.20;;;22.38;;
57465;SDS011;67033;44.984;20.068;2023-02-15T00:55:32;45.38;;;23.45;;
57465;SDS011;67033;44.984;20.068;2023-02-15T00:57:58;40.58;;;22.85;;
57465;SDS011;67033;44.984;20.068;2023-02-15T01:00:24;42.25;;;21.75;;
57465;SDS011;67033;44.984;20.068;2023-02-15T01:02:50;44.80;;;23.50;;
57465;SDS011;67033;44.984;20.068;2023-02-15T01:05:17;43.25;;;23.75;;
57465;SDS011;67033;44.984;20.068;2023-02-15T01:07:43;43.58;;;23.98;;
57465;SDS011;67033;44.984;20.068;2023-02-15T01:10:09;43.17;;;22.58;;
57465;SDS011;67033;44.984;20.068;2023-02-15T01:12:35;44.55;;;24.15;;
57465;SDS011;67033;44.984;20.068;2023-02-15T01:15:01;41.70;;;22.67;;
57465;SDS011;67033;44.984;20.068;2023-02-15T01:17:27;49.80;;;25.65;;
57465;SDS011;67033;44.984;20.068;2023-02-15T01:19:54;70.18;;;32.70;;
57465;SDS011;67033;44.984;20.068;2023-02-15T01:22:20;89.35;;;38.88;;
57465;SDS011;67033;44.984;20.068;2023-02-15T01:24:48;74.10;;;33.38;;
57465;SDS011;67033;44.984;20.068;2023-02-15T01:27:15;111.55;;;46.30;;
57465;SDS011;67033;44.984;20.068;2023-02-15T01:29:41;118.97;;;48.65;;
57465;SDS011;67033;44.984;20.068;2023-02-15T01:32:07;144.05;;;54.17;;
57465;SDS011;67033;44.984;20.068;2023-02-15T01:34:33;88.00;;;39.05;;
57465;SDS011;67033;44.984;20.068;2023-02-15T01:37:00;64.43;;;33.30;;
57465;SDS011;67033;44.984;20.068;2023-02-15T01:39:26;49.58;;;26.90;;
57465;SDS011;67033;44.984;20.068;2023-02-15T01:41:52;44.03;;;25.63;;
57465;SDS011;67033;44.984;20.068;2023-02-15T01:47:03;47.70;;;24.50;;
57465;SDS011;67033;44.984;20.068;2023-02-15T01:49:29;44.17;;;24.15;;
57465;SDS011;67033;44.984;20.068;2023-02-15T01:51:55;46.05;;;24.25;;
57465;SDS011;67033;44.984;20.068;2023-02-15T01:54:23;42.45;;;23.02;;
57465;SDS011;67033;44.984;20.068;2023-02-15T01:56:51;44.03;;;22.70;;
57465;SDS011;67033;44.984;20.068;2023-02-15T01:59:19;44.15;;;21.67;;
57465;SDS011;67033;44.984;20.068;2023-02-15T02:01:47;39.95;;;21.70;;
57465;SDS011;67033;44.984;20.068;2023-02-15T02:04:25;42.67;;;24.23;;
57465;SDS011;67033;44.984;20.068;2023-02-15T02:06:55;44.92;;;23.73;;
57465;SDS011;67033;44.984;20.068;2023-02-15T02:09:23;43.45;;;24.38;;
57465;SDS011;67033;44.984;20.068;2023-02-15T02:11:49;42.17;;;22.90;;
57465;SDS011;67033;44.984;20.068;2023-02-15T02:14:16;44.50;;;23.45;;
57465;SDS011;67033;44.984;20.068;2023-02-15T02:43:14;40.03;;;22.63;;
57465;SDS011;67033;44.984;20.068;2023-02-15T02:46:15;40.75;;;23.88;;
57465;SDS011;67033;44.984;20.068;2023-02-15T02:48:34;40.40;;;22.38;;
57465;SDS011;67033;44.984;20.068;2023-02-15T02:51:00;41.25;;;23.45;;
57465;SDS011;67033;44.984;20.068;2023-02-15T02:53:26;41.63;;;23.23;;
57465;SDS011;67033;44.984;20.068;2023-02-15T02:55:56;35.53;;;20.33;;
57465;SDS011;67033;44.984;20.068;2023-02-15T03:03:38;35.85;;;20.92;;
57465;SDS011;67033;44.984;20.068;2023-02-15T03:06:06;37.15;;;21.50;;
57465;SDS011;67033;44.984;20.068;2023-02-15T03:08:35;35.55;;;20.90;;
57465;SDS011;67033;44.984;20.068;2023-02-15T03:11:03;44.15;;;21.30;;
57465;SDS011;67033;44.984;20.068;2023-02-15T03:13:29;43.22;;;22.65;;
57465;SDS011;67033;44.984;20.068;2023-02-15T03:15:56;40.72;;;21.10;;
57465;SDS011;67033;44.984;20.068;2023-02-15T03:18:43;40.92;;;20.92;;
57465;SDS011;67033;44.984;20.068;2023-02-15T03:21:19;38.30;;;21.25;;
57465;SDS011;67033;44.984;20.068;2023-02-15T03:23:51;37.75;;;20.70;;
57465;SDS011;67033;44.984;20.068;2023-02-15T03:26:18;37.58;;;21.25;;
57465;SDS011;67033;44.984;20.068;2023-02-15T03:28:47;38.00;;;20.40;;
57465;SDS011;67033;44.984;20.068;2023-02-15T03:31:16;37.28;;;20.70;;
57465;SDS011;67033;44.984;20.068;2023-02-15T03:33:45;39.42;;;20.40;;
57465;SDS011;67033;44.984;20.068;2023-02-15T03:36:16;37.60;;;21.00;;
57465;SDS011;67033;44.984;20.068;2023-02-15T03:38:47;38.65;;;20.27;;
57465;SDS011;67033;44.984;20.068;2023-02-15T03:41:15;39.30;;;20.83;;
57465;SDS011;67033;44.984;20.068;2023-02-15T03:46:32;36.08;;;19.38;;
57465;SDS011;67033;44.984;20.068;2023-02-15T03:49:09;36.38;;;20.08;;
57465;SDS011;67033;44.984;20.068;2023-02-15T03:51:37;41.15;;;19.63;;
57465;SDS011;67033;44.984;20.068;2023-02-15T03:56:30;35.75;;;19.90;;
57465;SDS011;67033;44.984;20.068;2023-02-15T03:58:57;41.72;;;20.67;;
57465;SDS011;67033;44.984;20.068;2023-02-15T04:01:59;37.90;;;20.00;;
57465;SDS011;67033;44.984;20.068;2023-02-15T04:04:32;37.70;;;19.65;;
57465;SDS011;67033;44.984;20.068;2023-02-15T04:06:59;33.17;;;19.60;;
57465;SDS011;67033;44.984;20.068;2023-02-15T04:09:26;33.50;;;19.17;;
57465;SDS011;67033;44.984;20.068;2023-02-15T04:12:11;34.30;;;19.35;;
57465;SDS011;67033;44.984;20.068;2023-02-15T04:14:37;38.75;;;20.02;;
57465;SDS011;67033;44.984;20.068;2023-02-15T04:17:21;35.20;;;19.17;;
57465;SDS011;67033;44.984;20.068;2023-02-15T04:19:48;35.45;;;20.20;;
57465;SDS011;67033;44.984;20.068;2023-02-15T04:22:32;33.60;;;20.23;;
57465;SDS011;67033;44.984;20.068;2023-02-15T04:25:17;35.03;;;18.88;;
57465;SDS011;67033;44.984;20.068;2023-02-15T04:27:45;34.67;;;18.67;;
57465;SDS011;67033;44.984;20.068;2023-02-15T04:30:13;36.05;;;19.88;;
57465;SDS011;67033;44.984;20.068;2023-02-15T04:32:39;35.28;;;20.38;;
57465;SDS011;67033;44.984;20.068;2023-02-15T04:35:05;36.95;;;19.35;;
57465;SDS011;67033;44.984;20.068;2023-02-15T04:37:32;30.30;;;18.83;;
57465;SDS011;67033;44.984;20.068;2023-02-15T04:39:58;34.50;;;19.75;;
57465;SDS011;67033;44.984;20.068;2023-02-15T04:42:25;39.83;;;20.90;;
57465;SDS011;67033;44.984;20.068;2023-02-15T04:44:51;33.10;;;19.45;;
57465;SDS011;67033;44.984;20.068;2023-02-15T04:47:18;35.58;;;20.10;;
57465;SDS011;67033;44.984;20.068;2023-02-15T04:49:44;40.58;;;20.45;;
57465;SDS011;67033;44.984;20.068;2023-02-15T04:52:10;39.40;;;20.65;;
57465;SDS011;67033;44.984;20.068;2023-02-15T04:54:37;36.55;;;19.80;;
57465;SDS011;67033;44.984;20.068;2023-02-15T04:57:03;39.65;;;21.17;;
57465;SDS011;67033;44.984;20.068;2023-02-15T04:59:29;37.80;;;20.52;;
57465;SDS011;67033;44.984;20.068;2023-02-15T05:01:56;37.13;;;19.77;;
57465;SDS011;67033;44.984;20.068;2023-02-15T05:04:22;38.13;;;20.98;;
57465;SDS011;67033;44.984;20.068;2023-02-15T05:06:48;37.67;;;20.90;;
57465;SDS011;67033;44.984;20.068;2023-02-15T05:09:15;37.42;;;19.92;;
57465;SDS011;67033;44.984;20.068;2023-02-15T05:11:41;43.00;;;20.65;;
57465;SDS011;67033;44.984;20.068;2023-02-15T05:14:07;34.38;;;18.98;;
57465;SDS011;67033;44.984;20.068;2023-02-15T05:16:34;39.80;;;20.08;;
57465;SDS011;67033;44.984;20.068;2023-02-15T05:19:00;38.13;;;19.58;;
57465;SDS011;67033;44.984;20.068;2023-02-15T05:21:26;40.40;;;23.80;;
57465;SDS011;67033;44.984;20.068;2023-02-15T05:23:52;42.63;;;24.42;;
57465;SDS011;67033;44.984;20.068;2023-02-15T05:26:20;44.33;;;22.95;;
57465;SDS011;67033;44.984;20.068;2023-02-15T05:29:05;51.85;;;21.63;;
57465;SDS011;67033;44.984;20.068;2023-02-15T05:31:32;47.45;;;21.83;;
57465;SDS011;67033;44.984;20.068;2023-02-15T05:33:58;39.85;;;21.45;;
57465;SDS011;67033;44.984;20.068;2023-02-15T05:36:24;54.20;;;25.80;;
57465;SDS011;67033;44.984;20.068;2023-02-15T05:38:51;61.60;;;24.92;;
57465;SDS011;67033;44.984;20.068;2023-02-15T05:41:17;49.40;;;25.05;;
57465;SDS011;67033;44.984;20.068;2023-02-15T05:43:43;54.33;;;27.13;;
57465;SDS011;67033;44.984;20.068;2023-02-15T05:46:09;53.33;;;26.30;;
57465;SDS011;67033;44.984;20.068;2023-02-15T05:48:37;53.92;;;28.45;;
57465;SDS011;67033;44.984;20.068;2023-02-15T05:53:30;55.28;;;28.42;;
57465;SDS011;67033;44.984;20.068;2023-02-15T05:55:57;58.88;;;29.38;;
57465;SDS011;67033;44.984;20.068;2023-02-15T05:58:33;65.40;;;28.90;;
57465;SDS011;67033;44.984;20.068;2023-02-15T06:01:06;57.13;;;28.20;;
57465;SDS011;67033;44.984;20.068;2023-02-15T06:03:33;57.45;;;28.60;;
57465;SDS011;67033;44.984;20.068;2023-02-15T06:05:59;54.72;;;28.45;;
57465;SDS011;67033;44.984;20.068;2023-02-15T06:08:25;60.05;;;30.40;;
57465;SDS011;67033;44.984;20.068;2023-02-15T06:10:51;64.93;;;32.42;;
57465;SDS011;67033;44.984;20.068;2023-02-15T06:13:18;59.13;;;31.50;;
57465;SDS011;67033;44.984;20.068;2023-02-15T06:15:44;60.90;;;31.33;;
57465;SDS011;67033;44.984;20.068;2023-02-15T06:18:10;58.47;;;30.45;;
57465;SDS011;67033;44.984;20.068;2023-02-15T06:20:36;58.38;;;31.60;;
57465;SDS011;67033;44.984;20.068;2023-02-15T06:23:02;63.75;;;32.15;;
57465;SDS011;67033;44.984;20.068;2023-02-15T06:25:29;82.28;;;34.42;;
57465;SDS011;67033;44.984;20.068;2023-02-15T06:27:55;64.20;;;31.05;;
57465;SDS011;67033;44.984;20.068;2023-02-15T06:30:21;61.05;;;30.45;;
57465;SDS011;67033;44.984;20.068;2023-02-15T06:32:47;63.63;;;30.88;;
57465;SDS011;67033;44.984;20.068;2023-02-15T06:35:14;57.88;;;29.17;;
57465;SDS011;67033;44.984;20.068;2023-02-15T06:37:40;57.17;;;32.15;;
57465;SDS011;67033;44.984;20.068;2023-02-15T06:40:07;59.10;;;30.83;;
57465;SDS011;67033;44.984;20.068;2023-02-15T06:42:33;57.17;;;30.02;;
57465;SDS011;67033;44.984;20.068;2023-02-15T06:44:59;52.17;;;28.88;;
57465;SDS011;67033;44.984;20.068;2023-02-15T06:47:25;48.85;;;27.02;;
57465;SDS011;67033;44.984;20.068;2023-02-15T06:49:52;49.22;;;26.40;;
57465;SDS011;67033;44.984;20.068;2023-02-15T06:52:18;52.88;;;26.30;;
57465;SDS011;67033;44.984;20.068;2023-02-15T06:54:44;58.67;;;27.67;;
57465;SDS011;67033;44.984;20.068;2023-02-15T06:57:10;50.45;;;29.20;;
57465;SDS011;67033;44.984;20.068;2023-02-15T06:59:37;54.35;;;30.02;;
57465;SDS011;67033;44.984;20.068;2023-02-15T07:02:03;65.28;;;34.40;;
57465;SDS011;67033;44.984;20.068;2023-02-15T07:04:29;72.55;;;37.55;;
57465;SDS011;67033;44.984;20.068;2023-02-15T07:06:55;62.63;;;34.42;;
57465;SDS011;67033;44.984;20.068;2023-02-15T07:09:22;65.00;;;32.20;;
57465;SDS011;67033;44.984;20.068;2023-02-15T07:11:48;57.55;;;30.00;;
57465;SDS011;67033;44.984;20.068;2023-02-15T07:14:33;55.45;;;28.35;;
57465;SDS011;67033;44.984;20.068;2023-02-15T07:16:59;47.35;;;26.58;;
57465;SDS011;67033;44.984;20.068;2023-02-15T07:19:25;45.78;;;25.45;;
57465;SDS011;67033;44.984;20.068;2023-02-15T07:21:51;48.17;;;27.50;;
57465;SDS011;67033;44.984;20.068;2023-02-15T07:24:17;48.15;;;25.67;;
57465;SDS011;67033;44.984;20.068;2023-02-15T07:26:44;45.00;;;25.52;;
57465;SDS011;67033;44.984;20.068;2023-02-15T07:29:10;45.35;;;26.40;;
57465;SDS011;67033;44.984;20.068;2023-02-15T07:31:36;42.78;;;25.70;;
57465;SDS011;67033;44.984;20.068;2023-02-15T07:34:02;44.40;;;25.00;;
57465;SDS011;67033;44.984;20.068;2023-02-15T07:36:29;52.63;;;26.38;;
57465;SDS011;67033;44.984;20.068;2023-02-15T07:38:55;49.15;;;28.17;;
57465;SDS011;67033;44.984;20.068;2023-02-15T07:41:21;58.75;;;29.15;;
57465;SDS011;67033;44.984;20.068;2023-02-15T07:43:48;51.78;;;27.88;;
57465;SDS011;67033;44.984;20.068;2023-02-15T07:46:15;52.95;;;28.52;;
57465;SDS011;67033;44.984;20.068;2023-02-15T07:48:43;51.65;;;28.95;;
57465;SDS011;67033;44.984;20.068;2023-02-15T07:51:10;49.35;;;29.73;;
57465;SDS011;67033;44.984;20.068;2023-02-15T07:53:37;56.60;;;29.92;;
57465;SDS011;67033;44.984;20.068;2023-02-15T07:56:05;56.72;;;30.35;;
57465;SDS011;67033;44.984;20.068;2023-02-15T07:58:34;58.60;;;31.77;;
57465;SDS011;67033;44.984;20.068;2023-02-15T08:01:15;56.47;;;31.33;;
57465;SDS011;67033;44.984;20.068;2023-02-15T08:03:41;62.35;;;32.40;;
57465;SDS011;67033;44.984;20.068;2023-02-15T08:06:08;60.95;;;33.78;;
57465;SDS011;67033;44.984;20.068;2023-02-15T08:08:36;54.92;;;31.35;;
57465;SDS011;67033;44.984;20.068;2023-02-15T08:11:04;58.70;;;28.95;;
57465;SDS011;67033;44.984;20.068;2023-02-15T08:13:50;54.13;;;29.20;;
57465;SDS011;67033;44.984;20.068;2023-02-15T08:18:52;59.25;;;29.67;;
57465;SDS011;67033;44.984;20.068;2023-02-15T08:21:19;47.85;;;29.30;;
57465;SDS011;67033;44.984;20.068;2023-02-15T08:23:46;50.90;;;28.40;;
57465;SDS011;67033;44.984;20.068;2023-02-15T08:26:12;46.70;;;29.70;;
57465;SDS011;67033;44.984;20.068;2023-02-15T08:28:39;56.78;;;30.25;;
57465;SDS011;67033;44.984;20.068;2023-02-15T08:31:08;50.17;;;29.40;;
57465;SDS011;67033;44.984;20.068;2023-02-15T08:33:35;53.83;;;28.38;;
57465;SDS011;67033;44.984;20.068;2023-02-15T08:36:03;57.70;;;27.77;;
57465;SDS011;67033;44.984;20.068;2023-02-15T08:38:30;48.70;;;28.55;;
57465;SDS011;67033;44.984;20.068;2023-02-15T08:40:56;43.92;;;25.63;;
57465;SDS011;67033;44.984;20.068;2023-02-15T08:43:22;44.25;;;24.65;;
57465;SDS011;67033;44.984;20.068;2023-02-15T08:45:48;38.03;;;24.05;;
57465;SDS011;67033;44.984;20.068;2023-02-15T08:48:14;39.85;;;23.67;;
57465;SDS011;67033;44.984;20.068;2023-02-15T08:50:40;40.75;;;23.00;;
57465;SDS011;67033;44.984;20.068;2023-02-15T08:53:07;36.25;;;23.27;;
57465;SDS011;67033;44.984;20.068;2023-02-15T08:55:33;38.92;;;24.88;;
57465;SDS011;67033;44.984;20.068;2023-02-15T08:57:59;35.70;;;22.67;;
57465;SDS011;67033;44.984;20.068;2023-02-15T09:00:25;35.00;;;21.48;;
57465;SDS011;67033;44.984;20.068;2023-02-15T09:02:53;34.60;;;20.25;;
57465;SDS011;67033;44.984;20.068;2023-02-15T09:05:20;34.70;;;22.85;;
57465;SDS011;67033;44.984;20.068;2023-02-15T09:07:46;32.85;;;19.30;;
57465;SDS011;67033;44.984;20.068;2023-02-15T09:10:12;28.17;;;18.65;;
57465;SDS011;67033;44.984;20.068;2023-02-15T09:12:39;29.98;;;18.77;;
57465;SDS011;67033;44.984;20.068;2023-02-15T09:15:05;29.73;;;18.65;;
57465;SDS011;67033;44.984;20.068;2023-02-15T09:17:31;38.63;;;19.40;;
57465;SDS011;67033;44.984;20.068;2023-02-15T09:19:57;28.40;;;18.17;;
57465;SDS011;67033;44.984;20.068;2023-02-15T09:22:23;28.10;;;16.80;;
57465;SDS011;67033;44.984;20.068;2023-02-15T09:24:50;28.52;;;17.70;;
57465;SDS011;67033;44.984;20.068;2023-02-15T09:27:16;30.98;;;17.75;;
57465;SDS011;67033;44.984;20.068;2023-02-15T09:29:42;31.33;;;19.52;;
57465;SDS011;67033;44.984;20.068;2023-02-15T09:32:08;25.90;;;17.52;;
57465;SDS011;67033;44.984;20.068;2023-02-15T09:34:33;26.63;;;17.05;;
57465;SDS011;67033;44.984;20.068;2023-02-15T09:36:59;27.80;;;16.77;;
57465;SDS011;67033;44.984;20.068;2023-02-15T09:39:25;28.17;;;18.35;;
57465;SDS011;67033;44.984;20.068;2023-02-15T09:42:00;28.95;;;17.30;;
57465;SDS011;67033;44.984;20.068;2023-02-15T10:01:36;27.15;;;16.75;;
57465;SDS011;67033;44.984;20.068;2023-02-15T10:04:24;27.45;;;17.65;;
57465;SDS011;67033;44.984;20.068;2023-02-15T10:09:51;27.20;;;17.90;;
57465;SDS011;67033;44.984;20.068;2023-02-15T10:26:34;27.23;;;18.65;;
57465;SDS011;67033;44.984;20.068;2023-02-15T10:29:09;27.00;;;17.63;;
57465;SDS011;67033;44.984;20.068;2023-02-15T10:34:19;29.73;;;19.17;;
57465;SDS011;67033;44.984;20.068;2023-02-15T10:39:49;29.00;;;18.23;;
57465;SDS011;67033;44.984;20.068;2023-02-15T10:42:43;24.63;;;17.88;;
57465;SDS011;67033;44.984;20.068;2023-02-15T10:51:03;30.65;;;19.38;;
57465;SDS011;67033;44.984;20.068;2023-02-15T11:01:33;25.20;;;16.75;;
57465;SDS011;67033;44.984;20.068;2023-02-15T11:04:08;24.98;;;16.52;;
57465;SDS011;67033;44.984;20.068;2023-02-15T11:06:59;25.52;;;16.73;;
57465;SDS011;67033;44.984;20.068;2023-02-15T11:09:37;23.17;;;16.17;;
57465;SDS011;67033;44.984;20.068;2023-02-15T11:12:16;24.90;;;16.65;;
57465;SDS011;67033;44.984;20.068;2023-02-15T11:14:48;31.27;;;18.10;;
57465;SDS011;67033;44.984;20.068;2023-02-15T11:17:27;33.78;;;20.58;;
57465;SDS011;67033;44.984;20.068;2023-02-15T11:22:51;39.08;;;21.70;;
57465;SDS011;67033;44.984;20.068;2023-02-15T11:25:25;30.45;;;19.38;;
57465;SDS011;67033;44.984;20.068;2023-02-15T11:27:57;27.95;;;17.30;;
57465;SDS011;67033;44.984;20.068;2023-02-15T11:30:26;25.95;;;17.38;;
57465;SDS011;67033;44.984;20.068;2023-02-15T11:32:59;26.42;;;18.20;;
57465;SDS011;67033;44.984;20.068;2023-02-15T11:35:31;29.10;;;19.20;;
57465;SDS011;67033;44.984;20.068;2023-02-15T11:43:13;29.17;;;18.80;;
57465;SDS011;67033;44.984;20.068;2023-02-15T11:45:48;28.52;;;19.00;;
57465;SDS011;67033;44.984;20.068;2023-02-15T11:48:14;30.80;;;19.52;;
57465;SDS011;67033;44.984;20.068;2023-02-15T11:50:41;37.58;;;20.33;;
57465;SDS011;67033;44.984;20.068;2023-02-15T11:53:12;28.25;;;18.17;;
57465;SDS011;67033;44.984;20.068;2023-02-15T11:55:38;28.25;;;17.42;;
57465;SDS011;67033;44.984;20.068;2023-02-15T11:58:17;29.30;;;17.60;;
57465;SDS011;67033;44.984;20.068;2023-02-15T12:01:08;27.45;;;16.80;;
57465;SDS011;67033;44.984;20.068;2023-02-15T12:03:46;25.52;;;17.27;;
57465;SDS011;67033;44.984;20.068;2023-02-15T12:06:24;25.90;;;18.30;;
57465;SDS011;67033;44.984;20.068;2023-02-15T12:09:04;28.63;;;18.90;;
57465;SDS011;67033;44.984;20.068;2023-02-15T12:11:39;30.33;;;18.10;;
57465;SDS011;67033;44.984;20.068;2023-02-15T12:14:07;32.22;;;19.50;;
57465;SDS011;67033;44.984;20.068;2023-02-15T12:16:40;30.33;;;19.42;;
57465;SDS011;67033;44.984;20.068;2023-02-15T12:19:31;29.75;;;18.25;;
57465;SDS011;67033;44.984;20.068;2023-02-15T12:22:21;29.38;;;20.10;;
57465;SDS011;67033;44.984;20.068;2023-02-15T12:24:58;28.77;;;19.25;;
57465;SDS011;67033;44.984;20.068;2023-02-15T12:29:57;34.72;;;19.23;;
57465;SDS011;67033;44.984;20.068;2023-02-15T12:32:34;26.95;;;17.80;;
57465;SDS011;67033;44.984;20.068;2023-02-15T12:35:15;26.70;;;17.58;;
57465;SDS011;67033;44.984;20.068;2023-02-15T12:37:55;31.17;;;19.23;;
57465;SDS011;67033;44.984;20.068;2023-02-15T12:40:29;31.52;;;19.10;;
57465;SDS011;67033;44.984;20.068;2023-02-15T12:42:56;29.08;;;18.67;;
57465;SDS011;67033;44.984;20.068;2023-02-15T12:45:24;27.45;;;18.42;;
57465;SDS011;67033;44.984;20.068;2023-02-15T12:50:48;28.15;;;17.95;;
57465;SDS011;67033;44.984;20.068;2023-02-15T12:53:19;36.90;;;20.75;;
57465;SDS011;67033;44.984;20.068;2023-02-15T12:55:54;31.88;;;20.02;;
57465;SDS011;67033;44.984;20.068;2023-02-15T12:58:25;52.30;;;23.27;;
57465;SDS011;67033;44.984;20.068;2023-02-15T13:01:09;29.17;;;18.70;;
57465;SDS011;67033;44.984;20.068;2023-02-15T13:03:40;31.40;;;18.90;;
57465;SDS011;67033;44.984;20.068;2023-02-15T13:06:32;33.35;;;20.85;;
57465;SDS011;67033;44.984;20.068;2023-02-15T13:09:17;37.93;;;18.90;;
57465;SDS011;67033;44.984;20.068;2023-02-15T13:11:45;29.98;;;18.85;;
57465;SDS011;67033;44.984;20.068;2023-02-15T13:16:51;31.30;;;18.98;;
57465;SDS011;67033;44.984;20.068;2023-02-15T13:21:48;47.50;;;20.05;;
57465;SDS011;67033;44.984;20.068;2023-02-15T13:24:27;32.87;;;18.37;;
57465;SDS011;67033;44.984;20.068;2023-02-15T13:26:57;31.88;;;18.42;;
57465;SDS011;67033;44.984;20.068;2023-02-15T13:29:25;28.60;;;18.27;;
57465;SDS011;67033;44.984;20.068;2023-02-15T13:32:02;25.83;;;17.35;;
57465;SDS011;67033;44.984;20.068;2023-02-15T13:34:50;25.08;;;17.67;;
57465;SDS011;67033;44.984;20.068;2023-02-15T13:40:09;29.15;;;18.70;;
57465;SDS011;67033;44.984;20.068;2023-02-15T13:42:54;29.90;;;18.67;;
57465;SDS011;67033;44.984;20.068;2023-02-15T13:57:16;36.47;;;19.63;;
57465;SDS011;67033;44.984;20.068;2023-02-15T13:59:36;29.77;;;19.88;;
57465;SDS011;67033;44.984;20.068;2023-02-15T14:19:10;28.98;;;19.30;;
57465;SDS011;67033;44.984;20.068;2023-02-15T14:22:01;31.27;;;21.08;;
57465;SDS011;67033;44.984;20.068;2023-02-15T14:24:39;29.48;;;20.25;;
57465;SDS011;67033;44.984;20.068;2023-02-15T14:30:00;32.60;;;19.25;;
57465;SDS011;67033;44.984;20.068;2023-02-15T14:32:35;32.35;;;20.70;;
57465;SDS011;67033;44.984;20.068;2023-02-15T14:35:16;29.88;;;19.95;;
57465;SDS011;67033;44.984;20.068;2023-02-15T14:37:46;30.65;;;19.58;;
57465;SDS011;67033;44.984;20.068;2023-02-15T14:43:11;34.97;;;20.23;;
57465;SDS011;67033;44.984;20.068;2023-02-15T14:45:53;34.08;;;20.55;;
57465;SDS011;67033;44.984;20.068;2023-02-15T14:48:41;30.15;;;20.17;;
57465;SDS011;67033;44.984;20.068;2023-02-15T14:56:42;41.28;;;21.58;;
57465;SDS011;67033;44.984;20.068;2023-02-15T15:01:37;52.38;;;27.58;;
57465;SDS011;67033;44.984;20.068;2023-02-15T15:04:05;42.00;;;22.60;;
57465;SDS011;67033;44.984;20.068;2023-02-15T15:06:56;41.53;;;21.35;;
57465;SDS011;67033;44.984;20.068;2023-02-15T15:09:32;38.70;;;22.10;;
57465;SDS011;67033;44.984;20.068;2023-02-15T15:14:51;36.80;;;21.52;;
57465;SDS011;67033;44.984;20.068;2023-02-15T15:20:13;29.15;;;19.95;;
57465;SDS011;67033;44.984;20.068;2023-02-15T15:22:42;28.02;;;18.95;;
57465;SDS011;67033;44.984;20.068;2023-02-15T15:25:09;28.67;;;19.13;;
57465;SDS011;67033;44.984;20.068;2023-02-15T15:27:56;31.05;;;18.98;;
57465;SDS011;67033;44.984;20.068;2023-02-15T15:50:17;31.70;;;19.60;;
57465;SDS011;67033;44.984;20.068;2023-02-15T15:52:52;39.67;;;19.58;;
57465;SDS011;67033;44.984;20.068;2023-02-15T15:55:20;38.67;;;20.77;;
57465;SDS011;67033;44.984;20.068;2023-02-15T15:57:52;77.57;;;32.97;;
57465;SDS011;67033;44.984;20.068;2023-02-15T16:03:15;129.57;;;52.08;;
57465;SDS011;67033;44.984;20.068;2023-02-15T16:05:46;77.68;;;32.85;;
57465;SDS011;67033;44.984;20.068;2023-02-15T16:08:13;69.40;;;30.65;;
57465;SDS011;67033;44.984;20.068;2023-02-15T16:10:50;58.25;;;25.30;;
57465;SDS011;67033;44.984;20.068;2023-02-15T16:13:16;57.28;;;24.80;;
57465;SDS011;67033;44.984;20.068;2023-02-15T16:15:45;54.00;;;24.48;;
57465;SDS011;67033;44.984;20.068;2023-02-15T16:18:15;63.90;;;26.70;;
57465;SDS011;67033;44.984;20.068;2023-02-15T16:21:01;68.93;;;29.05;;
57465;SDS011;67033;44.984;20.068;2023-02-15T16:26:14;67.35;;;32.20;;
57465;SDS011;67033;44.984;20.068;2023-02-15T16:29:27;90.25;;;36.80;;
57465;SDS011;67033;44.984;20.068;2023-02-15T16:34:29;82.53;;;37.83;;
57465;SDS011;67033;44.984;20.068;2023-02-15T16:37:19;56.10;;;26.40;;
57465;SDS011;67033;44.984;20.068;2023-02-15T16:39:49;81.95;;;33.70;;
57465;SDS011;67033;44.984;20.068;2023-02-15T16:42:15;76.90;;;36.00;;
57465;SDS011;67033;44.984;20.068;2023-02-15T16:44:42;99.00;;;42.15;;
57465;SDS011;67033;44.984;20.068;2023-02-15T16:47:21;131.63;;;61.35;;
57465;SDS011;67033;44.984;20.068;2023-02-15T16:49:51;175.48;;;78.50;;
57465;SDS011;67033;44.984;20.068;2023-02-15T16:52:21;119.55;;;56.00;;
57465;SDS011;67033;44.984;20.068;2023-02-15T16:55:18;147.05;;;70.95;;
57465;SDS011;67033;44.984;20.068;2023-02-15T16:57:44;127.65;;;59.15;;
57465;SDS011;67033;44.984;20.068;2023-02-15T17:00:17;153.68;;;71.25;;
57465;SDS011;67033;44.984;20.068;2023-02-15T17:03:19;118.65;;;52.97;;
57465;SDS011;67033;44.984;20.068;2023-02-15T17:05:32;145.00;;;61.75;;
57465;SDS011;67033;44.984;20.068;2023-02-15T17:08:13;141.75;;;62.08;;
57465;SDS011;67033;44.984;20.068;2023-02-15T17:11:11;126.38;;;58.05;;
57465;SDS011;67033;44.984;20.068;2023-02-15T17:13:36;158.02;;;68.55;;
57465;SDS011;67033;44.984;20.068;2023-02-15T17:18:29;141.82;;;64.47;;
57465;SDS011;67033;44.984;20.068;2023-02-15T17:20:57;145.40;;;60.70;;
57465;SDS011;67033;44.984;20.068;2023-02-15T17:23:41;165.02;;;64.85;;
57465;SDS011;67033;44.984;20.068;2023-02-15T17:26:20;149.55;;;62.38;;
57465;SDS011;67033;44.984;20.068;2023-02-15T17:31:13;162.50;;;63.83;;
57465;SDS011;67033;44.984;20.068;2023-02-15T17:33:39;168.68;;;71.03;;
57465;SDS011;67033;44.984;20.068;2023-02-15T17:38:34;116.60;;;56.58;;
57465;SDS011;67033;44.984;20.068;2023-02-15T17:41:00;101.82;;;48.58;;
57465;SDS011;67033;44.984;20.068;2023-02-15T17:43:26;100.07;;;46.10;;
57465;SDS011;67033;44.984;20.068;2023-02-15T17:45:53;94.85;;;45.03;;
57465;SDS011;67033;44.984;20.068;2023-02-15T17:50:46;132.77;;;58.38;;
57465;SDS011;67033;44.984;20.068;2023-02-15T17:53:13;122.85;;;57.35;;
57465;SDS011;67033;44.984;20.068;2023-02-15T17:55:41;134.48;;;65.75;;